sensor_id;sensor_type;location;lat;lon;timestamp;temperature;humidity
4548;DHT22;2286;51.570;7.090;2023-08-08T00:01:19;14.50;1.00
4548;DHT22;2286;51.570;7.090;2023-08-08T00:03:46;14.50;1.00
4548;DHT22;2286;51.570;7.090;2023-08-08T00:06:13;14.60;86.00
4548;DHT22;2286;51.570;7.090;2023-08-08T00:08:40;14.70;1.00
4548;DHT22;2286;51.570;7.090;2023-08-08T00:11:07;14.70;1.00
4548;DHT22;2286;51.570;7.090;2023-08-08T00:13:34;14.70;1.00
4548;DHT22;2286;51.570;7.090;2023-08-08T00:16:02;14.70;99.90
4548;DHT22;2286;51.570;7.090;2023-08-08T00:18:29;14.70;99.90
4548;DHT22;2286;51.570;7.090;2023-08-08T00:20:56;14.70;1.00
4548;DHT22;2286;51.570;7.090;2023-08-08T00:23:23;14.70;1.00
4548;DHT22;2286;51.570;7.090;2023-08-08T00:25:50;14.70;1.00
4548;DHT22;2286;51.570;7.090;2023-08-08T00:28:18;14.70;99.90
4548;DHT22;2286;51.570;7.090;2023-08-08T00:30:45;14.70;68.10
4548;DHT22;2286;51.570;7.090;2023-08-08T00:33:13;14.70;99.90
4548;DHT22;2286;51.570;7.090;2023-08-08T00:35:40;14.70;99.90
4548;DHT22;2286;51.570;7.090;2023-08-08T00:38:07;14.60;99.90
4548;DHT22;2286;51.570;7.090;2023-08-08T00:40:34;14.50;99.90
4548;DHT22;2286;51.570;7.090;2023-08-08T00:43:00;14.50;99.90
4548;DHT22;2286;51.570;7.090;2023-08-08T00:45:27;14.50;99.90
4548;DHT22;2286;51.570;7.090;2023-08-08T00:47:54;14.40;99.90
4548;DHT22;2286;51.570;7.090;2023-08-08T00:50:23;14.40;99.90
4548;DHT22;2286;51.570;7.090;2023-08-08T00:52:50;14.40;99.90
4548;DHT22;2286;51.570;7.090;2023-08-08T00:55:17;14.40;99.90
4548;DHT22;2286;51.570;7.090;2023-08-08T00:57:45;14.30;99.90
4548;DHT22;2286;51.570;7.090;2023-08-08T01:00:12;14.30;99.90
4548;DHT22;2286;51.570;7.090;2023-08-08T01:02:39;14.30;99.90
4548;DHT22;2286;51.570;7.090;2023-08-08T01:05:07;14.30;39.20
4548;DHT22;2286;51.570;7.090;2023-08-08T01:07:41;14.30;21.50
4548;DHT22;2286;51.570;7.090;2023-08-08T01:10:12;14.30;1.00
4548;DHT22;2286;51.570;7.090;2023-08-08T01:12:42;14.40;1.00
4548;DHT22;2286;51.570;7.090;2023-08-08T01:15:10;14.30;1.00
4548;DHT22;2286;51.570;7.090;2023-08-08T01:17:38;14.30;1.00
4548;DHT22;2286;51.570;7.090;2023-08-08T01:20:06;14.30;1.00
4548;DHT22;2286;51.570;7.090;2023-08-08T01:22:39;14.30;1.00
4548;DHT22;2286;51.570;7.090;2023-08-08T01:25:08;14.30;1.00
4548;DHT22;2286;51.570;7.090;2023-08-08T01:27:36;14.30;1.00
4548;DHT22;2286;51.570;7.090;2023-08-08T01:30:03;14.30;1.00
4548;DHT22;2286;51.570;7.090;2023-08-08T01:32:30;14.30;1.00
4548;DHT22;2286;51.570;7.090;2023-08-08T01:34:58;14.40;1.00
4548;DHT22;2286;51.570;7.090;2023-08-08T01:37:29;14.40;1.00
4548;DHT22;2286;51.570;7.090;2023-08-08T01:39:59;14.30;1.00
4548;DHT22;2286;51.570;7.090;2023-08-08T01:42:29;14.30;1.00
4548;DHT22;2286;51.570;7.090;2023-08-08T01:44:56;14.20;1.00
4548;DHT22;2286;51.570;7.090;2023-08-08T01:47:23;14.10;1.00
4548;DHT22;2286;51.570;7.090;2023-08-08T01:49:50;14.10;3.00
4548;DHT22;2286;51.570;7.090;2023-08-08T01:52:17;14.10;68.80
4548;DHT22;2286;51.570;7.090;2023-08-08T01:54:44;14.00;92.70
4548;DHT22;2286;51.570;7.090;2023-08-08T01:57:11;14.00;99.90
4548;DHT22;2286;51.570;7.090;2023-08-08T01:59:39;14.00;99.90
4548;DHT22;2286;51.570;7.090;2023-08-08T02:02:06;14.00;60.00
4548;DHT22;2286;51.570;7.090;2023-08-08T02:04:33;14.00;44.70
4548;DHT22;2286;51.570;7.090;2023-08-08T02:07:00;14.10;99.90
4548;DHT22;2286;51.570;7.090;2023-08-08T02:09:27;14.10;15.20
4548;DHT22;2286;51.570;7.090;2023-08-08T02:11:54;14.10;1.00
4548;DHT22;2286;51.570;7.090;2023-08-08T02:14:21;14.20;1.00
4548;DHT22;2286;51.570;7.090;2023-08-08T02:16:50;14.20;1.00
4548;DHT22;2286;51.570;7.090;2023-08-08T02:19:17;14.20;1.00
4548;DHT22;2286;51.570;7.090;2023-08-08T02:21:44;14.20;1.00
4548;DHT22;2286;51.570;7.090;2023-08-08T02:24:11;14.20;1.00
4548;DHT22;2286;51.570;7.090;2023-08-08T02:26:38;14.20;1.00
4548;DHT22;2286;51.570;7.090;2023-08-08T02:29:05;14.20;1.00
4548;DHT22;2286;51.570;7.090;2023-08-08T02:31:32;14.20;1.00
4548;DHT22;2286;51.570;7.090;2023-08-08T02:34:00;14.20;1.00
4548;DHT22;2286;51.570;7.090;2023-08-08T02:36:27;14.20;1.00
4548;DHT22;2286;51.570;7.090;2023-08-08T02:38:54;14.20;1.00
4548;DHT22;2286;51.570;7.090;2023-08-08T02:41:22;14.10;1.00
4548;DHT22;2286;51.570;7.090;2023-08-08T02:43:49;14.10;1.00
4548;DHT22;2286;51.570;7.090;2023-08-08T02:46:16;14.10;1.00
4548;DHT22;2286;51.570;7.090;2023-08-08T02:48:43;14.10;1.00
4548;DHT22;2286;51.570;7.090;2023-08-08T02:51:11;14.10;1.00
4548;DHT22;2286;51.570;7.090;2023-08-08T02:53:38;14.10;1.00
4548;DHT22;2286;51.570;7.090;2023-08-08T02:56:05;14.10;99.90
4548;DHT22;2286;51.570;7.090;2023-08-08T02:58:32;14.10;99.90
4548;DHT22;2286;51.570;7.090;2023-08-08T03:00:59;14.10;99.90
4548;DHT22;2286;51.570;7.090;2023-08-08T03:03:26;14.10;99.90
4548;DHT22;2286;51.570;7.090;2023-08-08T03:05:54;14.10;99.90
4548;DHT22;2286;51.570;7.090;2023-08-08T03:08:22;14.10;99.90
4548;DHT22;2286;51.570;7.090;2023-08-08T03:10:49;14.10;99.90
4548;DHT22;2286;51.570;7.090;2023-08-08T03:13:16;14.10;99.90
4548;DHT22;2286;51.570;7.090;2023-08-08T03:15:43;14.10;99.90
4548;DHT22;2286;51.570;7.090;2023-08-08T03:18:10;14.10;1.00
4548;DHT22;2286;51.570;7.090;2023-08-08T03:20:37;14.00;98.80
4548;DHT22;2286;51.570;7.090;2023-08-08T03:23:04;14.00;31.50
4548;DHT22;2286;51.570;7.090;2023-08-08T03:25:33;14.10;99.90
4548;DHT22;2286;51.570;7.090;2023-08-08T03:27:59;13.90;99.90
4548;DHT22;2286;51.570;7.090;2023-08-08T03:30:26;13.90;99.90
4548;DHT22;2286;51.570;7.090;2023-08-08T03:32:53;13.90;1.00
4548;DHT22;2286;51.570;7.090;2023-08-08T03:35:20;13.90;1.00
4548;DHT22;2286;51.570;7.090;2023-08-08T03:37:47;13.80;99.90
4548;DHT22;2286;51.570;7.090;2023-08-08T03:40:15;13.80;99.90
4548;DHT22;2286;51.570;7.090;2023-08-08T03:42:43;13.80;99.90
4548;DHT22;2286;51.570;7.090;2023-08-08T03:45:12;13.70;1.00
4548;DHT22;2286;51.570;7.090;2023-08-08T03:47:39;13.60;1.00
4548;DHT22;2286;51.570;7.090;2023-08-08T03:50:07;13.60;1.00
4548;DHT22;2286;51.570;7.090;2023-08-08T03:52:35;13.60;80.70
4548;DHT22;2286;51.570;7.090;2023-08-08T03:55:04;13.50;99.90
4548;DHT22;2286;51.570;7.090;2023-08-08T03:57:31;13.60;1.00
4548;DHT22;2286;51.570;7.090;2023-08-08T04:00:00;13.50;99.90
4548;DHT22;2286;51.570;7.090;2023-08-08T04:02:27;13.50;1.00
4548;DHT22;2286;51.570;7.090;2023-08-08T04:04:54;13.50;1.00
4548;DHT22;2286;51.570;7.090;2023-08-08T04:07:21;13.50;99.90
4548;DHT22;2286;51.570;7.090;2023-08-08T04:09:47;13.50;99.90
4548;DHT22;2286;51.570;7.090;2023-08-08T04:12:15;13.50;99.90
4548;DHT22;2286;51.570;7.090;2023-08-08T04:14:42;13.50;99.90
4548;DHT22;2286;51.570;7.090;2023-08-08T04:17:10;13.40;99.90
4548;DHT22;2286;51.570;7.090;2023-08-08T04:19:37;13.40;1.00
4548;DHT22;2286;51.570;7.090;2023-08-08T04:22:04;13.40;1.00
4548;DHT22;2286;51.570;7.090;2023-08-08T04:24:31;13.40;1.00
4548;DHT22;2286;51.570;7.090;2023-08-08T04:26:58;13.50;1.00
4548;DHT22;2286;51.570;7.090;2023-08-08T04:29:25;13.50;1.00
4548;DHT22;2286;51.570;7.090;2023-08-08T04:31:53;13.50;1.00
4548;DHT22;2286;51.570;7.090;2023-08-08T04:34:21;13.50;1.00
4548;DHT22;2286;51.570;7.090;2023-08-08T04:36:48;13.50;1.00
4548;DHT22;2286;51.570;7.090;2023-08-08T04:39:15;13.50;1.00
4548;DHT22;2286;51.570;7.090;2023-08-08T04:41:42;13.60;1.00
4548;DHT22;2286;51.570;7.090;2023-08-08T04:44:09;13.50;1.00
4548;DHT22;2286;51.570;7.090;2023-08-08T04:46:36;13.60;1.00
4548;DHT22;2286;51.570;7.090;2023-08-08T04:49:03;13.60;1.00
4548;DHT22;2286;51.570;7.090;2023-08-08T04:51:31;13.60;1.00
4548;DHT22;2286;51.570;7.090;2023-08-08T04:53:58;13.70;1.00
4548;DHT22;2286;51.570;7.090;2023-08-08T04:56:25;13.70;1.00
4548;DHT22;2286;51.570;7.090;2023-08-08T04:58:53;13.70;1.00
4548;DHT22;2286;51.570;7.090;2023-08-08T05:01:20;13.70;1.00
4548;DHT22;2286;51.570;7.090;2023-08-08T05:03:47;13.70;1.00
4548;DHT22;2286;51.570;7.090;2023-08-08T05:06:15;13.70;1.00
4548;DHT22;2286;51.570;7.090;2023-08-08T05:08:43;13.70;1.00
4548;DHT22;2286;51.570;7.090;2023-08-08T05:11:10;13.70;1.00
4548;DHT22;2286;51.570;7.090;2023-08-08T05:13:38;13.80;1.00
4548;DHT22;2286;51.570;7.090;2023-08-08T05:16:05;13.80;1.00
4548;DHT22;2286;51.570;7.090;2023-08-08T05:18:32;13.90;1.00
4548;DHT22;2286;51.570;7.090;2023-08-08T05:20:59;13.90;1.00
4548;DHT22;2286;51.570;7.090;2023-08-08T05:23:26;13.80;1.00
4548;DHT22;2286;51.570;7.090;2023-08-08T05:25:54;13.90;1.00
4548;DHT22;2286;51.570;7.090;2023-08-08T05:28:21;13.90;1.00
4548;DHT22;2286;51.570;7.090;2023-08-08T05:30:48;13.90;1.00
4548;DHT22;2286;51.570;7.090;2023-08-08T05:33:15;13.90;1.00
4548;DHT22;2286;51.570;7.090;2023-08-08T05:35:42;13.90;1.00
4548;DHT22;2286;51.570;7.090;2023-08-08T05:38:09;13.90;1.00
4548;DHT22;2286;51.570;7.090;2023-08-08T05:40:36;13.90;1.00
4548;DHT22;2286;51.570;7.090;2023-08-08T05:43:05;14.00;1.00
4548;DHT22;2286;51.570;7.090;2023-08-08T05:45:32;13.90;1.00
4548;DHT22;2286;51.570;7.090;2023-08-08T05:47:59;13.90;1.00
4548;DHT22;2286;51.570;7.090;2023-08-08T05:50:26;13.90;1.00
4548;DHT22;2286;51.570;7.090;2023-08-08T05:52:53;14.00;1.00
4548;DHT22;2286;51.570;7.090;2023-08-08T05:55:20;14.00;1.00
4548;DHT22;2286;51.570;7.090;2023-08-08T05:57:47;14.00;1.00
4548;DHT22;2286;51.570;7.090;2023-08-08T06:00:16;14.00;1.00
4548;DHT22;2286;51.570;7.090;2023-08-08T06:02:44;14.10;1.00
4548;DHT22;2286;51.570;7.090;2023-08-08T06:05:11;14.10;1.00
4548;DHT22;2286;51.570;7.090;2023-08-08T06:07:38;14.10;1.00
4548;DHT22;2286;51.570;7.090;2023-08-08T06:10:06;14.20;1.00
4548;DHT22;2286;51.570;7.090;2023-08-08T06:12:34;14.20;1.00
4548;DHT22;2286;51.570;7.090;2023-08-08T06:15:01;14.10;1.00
4548;DHT22;2286;51.570;7.090;2023-08-08T06:17:30;14.20;1.00
4548;DHT22;2286;51.570;7.090;2023-08-08T06:19:57;14.30;99.90
4548;DHT22;2286;51.570;7.090;2023-08-08T06:22:24;14.40;99.90
4548;DHT22;2286;51.570;7.090;2023-08-08T06:24:52;14.30;99.90
4548;DHT22;2286;51.570;7.090;2023-08-08T06:27:19;14.30;99.90
4548;DHT22;2286;51.570;7.090;2023-08-08T06:29:46;14.40;99.90
4548;DHT22;2286;51.570;7.090;2023-08-08T06:32:13;14.40;99.90
4548;DHT22;2286;51.570;7.090;2023-08-08T06:34:41;14.50;99.90
4548;DHT22;2286;51.570;7.090;2023-08-08T06:37:08;14.40;99.90
4548;DHT22;2286;51.570;7.090;2023-08-08T06:39:35;14.50;99.90
4548;DHT22;2286;51.570;7.090;2023-08-08T06:42:04;14.50;99.90
4548;DHT22;2286;51.570;7.090;2023-08-08T06:44:32;14.60;1.00
4548;DHT22;2286;51.570;7.090;2023-08-08T06:46:59;14.60;99.90
4548;DHT22;2286;51.570;7.090;2023-08-08T06:49:26;14.50;99.90
4548;DHT22;2286;51.570;7.090;2023-08-08T06:51:55;14.60;1.00
4548;DHT22;2286;51.570;7.090;2023-08-08T06:54:22;14.60;1.00
4548;DHT22;2286;51.570;7.090;2023-08-08T06:56:49;14.60;1.00
4548;DHT22;2286;51.570;7.090;2023-08-08T06:59:16;14.70;99.90
4548;DHT22;2286;51.570;7.090;2023-08-08T07:01:43;14.70;99.90
4548;DHT22;2286;51.570;7.090;2023-08-08T07:04:10;14.70;99.90
4548;DHT22;2286;51.570;7.090;2023-08-08T07:06:37;15.00;1.00
4548;DHT22;2286;51.570;7.090;2023-08-08T07:09:05;15.30;1.00
4548;DHT22;2286;51.570;7.090;2023-08-08T07:11:36;15.60;1.80
4548;DHT22;2286;51.570;7.090;2023-08-08T07:14:03;15.70;7.10
4548;DHT22;2286;51.570;7.090;2023-08-08T07:16:30;15.70;1.00
4548;DHT22;2286;51.570;7.090;2023-08-08T07:18:57;15.60;1.00
4548;DHT22;2286;51.570;7.090;2023-08-08T07:21:24;15.40;99.90
4548;DHT22;2286;51.570;7.090;2023-08-08T07:23:51;15.50;86.80
4548;DHT22;2286;51.570;7.090;2023-08-08T07:26:20;15.40;1.00
4548;DHT22;2286;51.570;7.090;2023-08-08T07:28:47;15.30;99.90
4548;DHT22;2286;51.570;7.090;2023-08-08T07:31:14;15.50;99.90
4548;DHT22;2286;51.570;7.090;2023-08-08T07:33:41;15.50;99.90
4548;DHT22;2286;51.570;7.090;2023-08-08T07:36:08;15.60;99.90
4548;DHT22;2286;51.570;7.090;2023-08-08T07:38:35;15.70;99.90
4548;DHT22;2286;51.570;7.090;2023-08-08T07:41:04;15.80;99.90
4548;DHT22;2286;51.570;7.090;2023-08-08T07:43:32;15.90;99.90
4548;DHT22;2286;51.570;7.090;2023-08-08T07:45:59;15.90;99.90
4548;DHT22;2286;51.570;7.090;2023-08-08T07:48:26;16.10;99.90
4548;DHT22;2286;51.570;7.090;2023-08-08T07:50:53;16.10;99.90
4548;DHT22;2286;51.570;7.090;2023-08-08T07:53:20;16.20;99.90
4548;DHT22;2286;51.570;7.090;2023-08-08T07:55:47;16.20;1.00
4548;DHT22;2286;51.570;7.090;2023-08-08T07:58:14;16.30;1.00
4548;DHT22;2286;51.570;7.090;2023-08-08T08:00:43;16.30;1.00
4548;DHT22;2286;51.570;7.090;2023-08-08T08:03:10;16.40;99.90
4548;DHT22;2286;51.570;7.090;2023-08-08T08:05:37;16.50;99.90
4548;DHT22;2286;51.570;7.090;2023-08-08T08:08:04;16.60;99.90
4548;DHT22;2286;51.570;7.090;2023-08-08T08:10:31;16.70;1.00
4548;DHT22;2286;51.570;7.090;2023-08-08T08:12:58;16.90;1.00
4548;DHT22;2286;51.570;7.090;2023-08-08T08:15:26;17.20;14.10
4548;DHT22;2286;51.570;7.090;2023-08-08T08:17:55;17.20;93.00
4548;DHT22;2286;51.570;7.090;2023-08-08T08:20:22;17.30;1.00
4548;DHT22;2286;51.570;7.090;2023-08-08T08:22:49;17.20;99.90
4548;DHT22;2286;51.570;7.090;2023-08-08T08:25:16;17.40;14.10
4548;DHT22;2286;51.570;7.090;2023-08-08T08:27:43;17.60;1.00
4548;DHT22;2286;51.570;7.090;2023-08-08T08:30:11;17.70;99.90
4548;DHT22;2286;51.570;7.090;2023-08-08T08:32:40;17.70;1.00
4548;DHT22;2286;51.570;7.090;2023-08-08T08:35:09;17.90;99.90
4548;DHT22;2286;51.570;7.090;2023-08-08T08:37:38;18.10;1.00
4548;DHT22;2286;51.570;7.090;2023-08-08T08:40:06;18.10;1.00
4548;DHT22;2286;51.570;7.090;2023-08-08T08:42:34;18.20;1.00
4548;DHT22;2286;51.570;7.090;2023-08-08T08:45:03;18.40;1.00
4548;DHT22;2286;51.570;7.090;2023-08-08T08:47:31;18.30;99.90
4548;DHT22;2286;51.570;7.090;2023-08-08T08:49:58;18.20;93.00
4548;DHT22;2286;51.570;7.090;2023-08-08T08:52:29;18.10;1.00
4548;DHT22;2286;51.570;7.090;2023-08-08T08:54:57;17.90;99.90
4548;DHT22;2286;51.570;7.090;2023-08-08T08:57:24;18.00;99.90
4548;DHT22;2286;51.570;7.090;2023-08-08T08:59:51;18.10;18.40
4548;DHT22;2286;51.570;7.090;2023-08-08T09:02:19;17.80;99.90
4548;DHT22;2286;51.570;7.090;2023-08-08T09:04:46;17.90;99.90
4548;DHT22;2286;51.570;7.090;2023-08-08T09:07:15;18.00;1.00
4548;DHT22;2286;51.570;7.090;2023-08-08T09:09:44;18.20;1.00
4548;DHT22;2286;51.570;7.090;2023-08-08T09:12:11;18.20;1.00
4548;DHT22;2286;51.570;7.090;2023-08-08T09:14:40;18.30;1.00
4548;DHT22;2286;51.570;7.090;2023-08-08T09:17:10;18.20;1.00
4548;DHT22;2286;51.570;7.090;2023-08-08T09:19:38;18.20;1.00
4548;DHT22;2286;51.570;7.090;2023-08-08T09:22:05;18.60;1.00
4548;DHT22;2286;51.570;7.090;2023-08-08T09:24:32;18.60;1.00
4548;DHT22;2286;51.570;7.090;2023-08-08T09:27:01;18.90;1.00
4548;DHT22;2286;51.570;7.090;2023-08-08T09:29:28;18.70;1.00
4548;DHT22;2286;51.570;7.090;2023-08-08T09:31:55;18.80;1.00
4548;DHT22;2286;51.570;7.090;2023-08-08T09:34:24;18.90;1.00
4548;DHT22;2286;51.570;7.090;2023-08-08T09:36:52;19.10;99.90
4548;DHT22;2286;51.570;7.090;2023-08-08T09:39:19;19.30;99.90
4548;DHT22;2286;51.570;7.090;2023-08-08T09:41:47;19.00;99.90
4548;DHT22;2286;51.570;7.090;2023-08-08T09:44:15;19.10;99.90
4548;DHT22;2286;51.570;7.090;2023-08-08T09:46:43;19.00;99.90
4548;DHT22;2286;51.570;7.090;2023-08-08T09:49:10;18.90;99.90
4548;DHT22;2286;51.570;7.090;2023-08-08T09:51:38;18.80;99.90
4548;DHT22;2286;51.570;7.090;2023-08-08T09:54:05;18.70;99.90
4548;DHT22;2286;51.570;7.090;2023-08-08T09:56:33;18.60;99.90
4548;DHT22;2286;51.570;7.090;2023-08-08T09:59:01;18.30;99.90
4548;DHT22;2286;51.570;7.090;2023-08-08T10:01:31;18.30;1.00
4548;DHT22;2286;51.570;7.090;2023-08-08T10:03:59;18.50;1.00
4548;DHT22;2286;51.570;7.090;2023-08-08T10:06:26;18.50;99.90
4548;DHT22;2286;51.570;7.090;2023-08-08T10:08:54;18.30;99.90
4548;DHT22;2286;51.570;7.090;2023-08-08T10:11:23;18.00;1.00
4548;DHT22;2286;51.570;7.090;2023-08-08T10:13:52;17.80;1.00
4548;DHT22;2286;51.570;7.090;2023-08-08T10:16:20;17.50;41.30
4548;DHT22;2286;51.570;7.090;2023-08-08T10:18:56;17.30;99.90
4548;DHT22;2286;51.570;7.090;2023-08-08T10:21:25;17.20;99.90
4548;DHT22;2286;51.570;7.090;2023-08-08T10:24:02;17.10;1.00
4548;DHT22;2286;51.570;7.090;2023-08-08T10:26:29;17.00;1.00
4548;DHT22;2286;51.570;7.090;2023-08-08T10:28:58;17.00;1.00
4548;DHT22;2286;51.570;7.090;2023-08-08T10:31:25;17.30;99.90
4548;DHT22;2286;51.570;7.090;2023-08-08T10:34:03;17.60;99.90
4548;DHT22;2286;51.570;7.090;2023-08-08T10:36:44;17.60;59.00
4548;DHT22;2286;51.570;7.090;2023-08-08T10:39:15;17.40;24.20
4548;DHT22;2286;51.570;7.090;2023-08-08T10:41:47;17.30;99.90
4548;DHT22;2286;51.570;7.090;2023-08-08T10:44:21;17.00;48.20
4548;DHT22;2286;51.570;7.090;2023-08-08T10:46:50;16.60;1.00
4548;DHT22;2286;51.570;7.090;2023-08-08T10:49:19;16.20;99.90
4548;DHT22;2286;51.570;7.090;2023-08-08T10:51:48;15.90;7.70
4548;DHT22;2286;51.570;7.090;2023-08-08T10:54:17;15.80;99.90
4548;DHT22;2286;51.570;7.090;2023-08-08T10:56:49;15.70;1.00
4548;DHT22;2286;51.570;7.090;2023-08-08T10:59:18;15.90;1.00
4548;DHT22;2286;51.570;7.090;2023-08-08T11:01:46;16.10;99.90
4548;DHT22;2286;51.570;7.090;2023-08-08T11:04:15;16.30;1.00
4548;DHT22;2286;51.570;7.090;2023-08-08T11:06:44;16.40;99.90
4548;DHT22;2286;51.570;7.090;2023-08-08T11:09:13;16.70;1.00
4548;DHT22;2286;51.570;7.090;2023-08-08T11:11:41;17.20;1.00
4548;DHT22;2286;51.570;7.090;2023-08-08T11:14:10;17.50;1.00
4548;DHT22;2286;51.570;7.090;2023-08-08T11:16:37;17.90;1.00
4548;DHT22;2286;51.570;7.090;2023-08-08T11:19:04;18.30;99.90
4548;DHT22;2286;51.570;7.090;2023-08-08T11:21:34;18.20;99.90
4548;DHT22;2286;51.570;7.090;2023-08-08T11:24:04;17.90;99.90
4548;DHT22;2286;51.570;7.090;2023-08-08T11:26:32;17.50;99.90
4548;DHT22;2286;51.570;7.090;2023-08-08T11:28:59;17.30;99.90
4548;DHT22;2286;51.570;7.090;2023-08-08T11:31:26;17.20;1.00
4548;DHT22;2286;51.570;7.090;2023-08-08T11:33:54;17.20;1.00
4548;DHT22;2286;51.570;7.090;2023-08-08T11:36:21;17.10;1.00
4548;DHT22;2286;51.570;7.090;2023-08-08T11:38:49;17.30;1.00
4548;DHT22;2286;51.570;7.090;2023-08-08T11:41:22;17.40;99.90
4548;DHT22;2286;51.570;7.090;2023-08-08T11:43:50;17.50;99.90
4548;DHT22;2286;51.570;7.090;2023-08-08T11:46:17;17.80;99.90
4548;DHT22;2286;51.570;7.090;2023-08-08T11:48:47;18.10;1.00
4548;DHT22;2286;51.570;7.090;2023-08-08T11:51:15;18.20;1.00
4548;DHT22;2286;51.570;7.090;2023-08-08T11:53:52;18.60;1.00
4548;DHT22;2286;51.570;7.090;2023-08-08T11:56:21;20.10;99.90
4548;DHT22;2286;51.570;7.090;2023-08-08T11:58:50;20.70;99.90
4548;DHT22;2286;51.570;7.090;2023-08-08T12:01:20;21.80;99.90
4548;DHT22;2286;51.570;7.090;2023-08-08T12:03:46;22.60;99.90
4548;DHT22;2286;51.570;7.090;2023-08-08T12:06:13;23.00;99.90
4548;DHT22;2286;51.570;7.090;2023-08-08T12:08:42;21.90;99.90
4548;DHT22;2286;51.570;7.090;2023-08-08T12:11:10;21.10;99.90
4548;DHT22;2286;51.570;7.090;2023-08-08T12:13:40;20.60;99.90
4548;DHT22;2286;51.570;7.090;2023-08-08T12:16:09;20.20;99.90
4548;DHT22;2286;51.570;7.090;2023-08-08T12:18:37;20.00;99.90
4548;DHT22;2286;51.570;7.090;2023-08-08T12:21:04;19.80;99.90
4548;DHT22;2286;51.570;7.090;2023-08-08T12:23:33;20.00;99.90
4548;DHT22;2286;51.570;7.090;2023-08-08T12:26:02;20.90;99.90
4548;DHT22;2286;51.570;7.090;2023-08-08T12:28:29;22.40;99.90
4548;DHT22;2286;51.570;7.090;2023-08-08T12:30:57;22.40;99.90
4548;DHT22;2286;51.570;7.090;2023-08-08T12:33:24;23.20;99.90
4548;DHT22;2286;51.570;7.090;2023-08-08T12:35:51;23.30;99.90
4548;DHT22;2286;51.570;7.090;2023-08-08T12:38:19;23.30;99.90
4548;DHT22;2286;51.570;7.090;2023-08-08T12:40:46;22.50;99.90
4548;DHT22;2286;51.570;7.090;2023-08-08T12:43:13;21.60;99.90
4548;DHT22;2286;51.570;7.090;2023-08-08T12:45:43;20.80;99.90
4548;DHT22;2286;51.570;7.090;2023-08-08T12:48:12;20.50;99.90
4548;DHT22;2286;51.570;7.090;2023-08-08T12:50:39;20.30;99.90
4548;DHT22;2286;51.570;7.090;2023-08-08T12:53:07;21.30;99.90
4548;DHT22;2286;51.570;7.090;2023-08-08T12:55:34;22.90;99.90
4548;DHT22;2286;51.570;7.090;2023-08-08T12:58:01;24.60;99.90
4548;DHT22;2286;51.570;7.090;2023-08-08T13:00:29;25.00;99.90
4548;DHT22;2286;51.570;7.090;2023-08-08T13:02:56;25.90;99.90
4548;DHT22;2286;51.570;7.090;2023-08-08T13:05:24;24.70;99.90
4548;DHT22;2286;51.570;7.090;2023-08-08T13:07:51;23.20;99.90
4548;DHT22;2286;51.570;7.090;2023-08-08T13:10:18;22.10;99.90
4548;DHT22;2286;51.570;7.090;2023-08-08T13:12:46;21.60;99.90
4548;DHT22;2286;51.570;7.090;2023-08-08T13:15:13;21.10;99.90
4548;DHT22;2286;51.570;7.090;2023-08-08T13:17:40;20.90;99.90
4548;DHT22;2286;51.570;7.090;2023-08-08T13:20:08;20.70;99.90
4548;DHT22;2286;51.570;7.090;2023-08-08T13:22:36;20.50;99.90
4548;DHT22;2286;51.570;7.090;2023-08-08T13:25:04;20.50;99.90
4548;DHT22;2286;51.570;7.090;2023-08-08T13:27:32;20.40;99.90
4548;DHT22;2286;51.570;7.090;2023-08-08T13:29:59;20.70;99.90
4548;DHT22;2286;51.570;7.090;2023-08-08T13:32:26;21.70;99.90
4548;DHT22;2286;51.570;7.090;2023-08-08T13:34:53;22.40;99.90
4548;DHT22;2286;51.570;7.090;2023-08-08T13:37:20;23.60;99.90
4548;DHT22;2286;51.570;7.090;2023-08-08T13:39:48;22.50;99.90
4548;DHT22;2286;51.570;7.090;2023-08-08T13:42:15;22.40;99.90
4548;DHT22;2286;51.570;7.090;2023-08-08T13:44:42;22.80;99.90
4548;DHT22;2286;51.570;7.090;2023-08-08T13:47:09;22.60;99.90
4548;DHT22;2286;51.570;7.090;2023-08-08T13:49:36;22.50;99.90
4548;DHT22;2286;51.570;7.090;2023-08-08T13:52:04;22.20;99.90
4548;DHT22;2286;51.570;7.090;2023-08-08T13:54:31;22.10;99.90
4548;DHT22;2286;51.570;7.090;2023-08-08T13:56:59;22.30;99.90
4548;DHT22;2286;51.570;7.090;2023-08-08T13:59:26;21.90;99.90
4548;DHT22;2286;51.570;7.090;2023-08-08T14:01:53;21.50;99.90
4548;DHT22;2286;51.570;7.090;2023-08-08T14:04:20;21.50;99.90
4548;DHT22;2286;51.570;7.090;2023-08-08T14:06:47;21.40;99.90
4548;DHT22;2286;51.570;7.090;2023-08-08T14:09:14;21.00;99.90
4548;DHT22;2286;51.570;7.090;2023-08-08T14:11:41;21.10;99.90
4548;DHT22;2286;51.570;7.090;2023-08-08T14:14:10;20.90;99.90
4548;DHT22;2286;51.570;7.090;2023-08-08T14:16:37;20.20;99.90
4548;DHT22;2286;51.570;7.090;2023-08-08T14:19:03;20.00;99.90
4548;DHT22;2286;51.570;7.090;2023-08-08T14:21:30;20.00;99.90
4548;DHT22;2286;51.570;7.090;2023-08-08T14:23:58;20.00;99.90
4548;DHT22;2286;51.570;7.090;2023-08-08T14:26:25;20.60;99.90
4548;DHT22;2286;51.570;7.090;2023-08-08T14:28:52;22.40;99.90
4548;DHT22;2286;51.570;7.090;2023-08-08T14:31:20;24.40;99.90
4548;DHT22;2286;51.570;7.090;2023-08-08T14:33:47;26.30;99.90
4548;DHT22;2286;51.570;7.090;2023-08-08T14:36:14;27.30;99.90
4548;DHT22;2286;51.570;7.090;2023-08-08T14:38:42;27.40;99.90
4548;DHT22;2286;51.570;7.090;2023-08-08T14:41:09;28.90;99.90
4548;DHT22;2286;51.570;7.090;2023-08-08T14:43:36;28.10;99.90
4548;DHT22;2286;51.570;7.090;2023-08-08T14:46:03;26.70;99.90
4548;DHT22;2286;51.570;7.090;2023-08-08T14:48:31;25.90;99.90
4548;DHT22;2286;51.570;7.090;2023-08-08T14:51:00;25.70;99.90
4548;DHT22;2286;51.570;7.090;2023-08-08T14:53:27;24.90;99.90
4548;DHT22;2286;51.570;7.090;2023-08-08T14:55:54;25.00;99.90
4548;DHT22;2286;51.570;7.090;2023-08-08T14:58:21;25.50;99.90
4548;DHT22;2286;51.570;7.090;2023-08-08T15:00:48;26.60;99.90
4548;DHT22;2286;51.570;7.090;2023-08-08T15:03:15;25.80;99.90
4548;DHT22;2286;51.570;7.090;2023-08-08T15:05:46;24.20;99.90
4548;DHT22;2286;51.570;7.090;2023-08-08T15:08:14;23.30;99.90
4548;DHT22;2286;51.570;7.090;2023-08-08T15:10:41;23.40;99.90
4548;DHT22;2286;51.570;7.090;2023-08-08T15:13:08;23.90;99.90
4548;DHT22;2286;51.570;7.090;2023-08-08T15:15:35;23.90;99.90
4548;DHT22;2286;51.570;7.090;2023-08-08T15:18:02;23.60;99.90
4548;DHT22;2286;51.570;7.090;2023-08-08T15:20:30;23.40;99.90
4548;DHT22;2286;51.570;7.090;2023-08-08T15:22:58;22.70;99.90
4548;DHT22;2286;51.570;7.090;2023-08-08T15:25:25;22.30;99.90
4548;DHT22;2286;51.570;7.090;2023-08-08T15:27:52;22.30;99.90
4548;DHT22;2286;51.570;7.090;2023-08-08T15:30:19;22.60;99.90
4548;DHT22;2286;51.570;7.090;2023-08-08T15:32:47;24.50;99.90
4548;DHT22;2286;51.570;7.090;2023-08-08T15:35:14;25.40;99.90
4548;DHT22;2286;51.570;7.090;2023-08-08T15:37:41;24.80;99.90
4548;DHT22;2286;51.570;7.090;2023-08-08T15:40:10;25.90;99.90
4548;DHT22;2286;51.570;7.090;2023-08-08T15:42:37;26.80;99.90
4548;DHT22;2286;51.570;7.090;2023-08-08T15:45:06;26.60;99.90
4548;DHT22;2286;51.570;7.090;2023-08-08T15:47:34;26.50;99.90
4548;DHT22;2286;51.570;7.090;2023-08-08T15:50:01;25.80;99.90
4548;DHT22;2286;51.570;7.090;2023-08-08T15:52:28;25.70;99.90
4548;DHT22;2286;51.570;7.090;2023-08-08T15:54:55;26.00;99.90
4548;DHT22;2286;51.570;7.090;2023-08-08T15:57:24;26.30;99.90
4548;DHT22;2286;51.570;7.090;2023-08-08T15:59:51;26.20;99.90
4548;DHT22;2286;51.570;7.090;2023-08-08T16:02:18;24.90;99.90
4548;DHT22;2286;51.570;7.090;2023-08-08T16:04:45;23.90;99.90
4548;DHT22;2286;51.570;7.090;2023-08-08T16:07:12;23.80;99.90
4548;DHT22;2286;51.570;7.090;2023-08-08T16:09:43;24.30;99.90